Topeka, Indiana
Current Conditions -  °F | °C
As of 10:53 PM on Wednesday 28 Jan 2015 (Local Time) from KGSH Reporting Station
Clear Clear  
Wind Chill: 16°   Ceiling: Unl
Heat Index: 29°   Visibility: 10mi
Dew Point: 19°   Wind: 20mph
Humidity: 67%   Direction: 150°SSE
Pressure: 30.01"   Gusts: NA
Location:  41.54°N, 85.54°W
Report Text: KGSH 290353Z AUTO 15017KT 10SM CLR M02/M07 A3001 RMK AO2 SLP171 T10171072
Loading
Personal Weather Stations






























Interactive Weather Map New forecast layout! Learn more

10-Day Weather Forecast

Advertisements
Track Severe Weather on mobile